Time;durP1;ratioP1;P1;durP2;ratioP2;P2;SDS_P1;SDS_P2;PMS_P1;PMS_P2;Temp;Humidity;BMP_temperature;BMP_pressure;BME280_temperature;BME280_humidity;BME280_pressure;Samples;Min_cycle;Max_cycle;Signal;HPM_P1;HPM_P2
2022/07/07 00:02:28;;;;;;;3.25;1.67;;;12.40;54.60;;;;;;5070298;28;20218;-49
2022/07/07 00:04:59;;;;;;;2.53;1.65;;;12.40;54.60;;;;;;5070638;28;20199;-48
2022/07/07 00:07:31;;;;;;;3.28;2.15;;;12.50;54.60;;;;;;5070265;28;20229;-48
2022/07/07 00:10:02;;;;;;;2.63;1.67;;;12.50;54.70;;;;;;5072094;28;20229;-44
2022/07/07 00:12:33;;;;;;;2.38;1.67;;;12.50;54.70;;;;;;5069844;28;20656;-44
2022/07/07 00:15:04;;;;;;;2.28;1.77;;;12.50;54.60;;;;;;5070151;28;20615;-44
2022/07/07 00:17:35;;;;;;;3.40;1.60;;;12.50;54.70;;;;;;5069580;28;20216;-44
2022/07/07 00:20:06;;;;;;;3.00;1.88;;;12.50;54.70;;;;;;5069234;28;20203;-43
2022/07/07 00:22:39;;;;;;;1.88;1.50;;;12.60;54.80;;;;;;5070278;28;20219;-43
2022/07/07 00:25:10;;;;;;;3.50;1.70;;;12.60;54.70;;;;;;5072068;28;20199;-43
2022/07/07 00:27:41;;;;;;;3.67;1.70;;;12.60;54.80;;;;;;5069434;28;20203;-42
2022/07/07 00:30:12;;;;;;;3.38;1.70;;;12.60;54.70;;;;;;5069352;28;20724;-43
2022/07/07 00:32:43;;;;;;;3.65;1.70;;;12.60;54.80;;;;;;5069549;28;20581;-44
2022/07/07 00:35:13;;;;;;;3.35;1.55;;;12.60;54.80;;;;;;5069601;28;20195;-44
2022/07/07 00:37:46;;;;;;;2.65;1.80;;;12.70;54.80;;;;;;5069291;28;20194;-45
2022/07/07 00:40:17;;;;;;;2.92;1.67;;;12.60;54.80;;;;;;5068921;28;20569;-44
2022/07/07 00:42:47;;;;;;;4.28;1.85;;;12.70;54.90;;;;;;5069493;28;20589;-46
2022/07/07 00:45:18;;;;;;;2.85;1.67;;;12.70;54.90;;;;;;5070681;28;20203;-47
2022/07/07 00:47:49;;;;;;;2.35;1.77;;;12.70;55.00;;;;;;5073942;28;20666;-44
2022/07/07 00:50:20;;;;;;;3.58;2.00;;;12.70;54.90;;;;;;5073635;28;20728;-45
2022/07/07 00:52:53;;;;;;;2.78;1.77;;;12.70;54.90;;;;;;5073847;28;20214;-45
2022/07/07 00:55:24;;;;;;;3.38;1.80;;;12.70;54.90;;;;;;5073464;28;20566;-44
2022/07/07 00:57:55;;;;;;;4.13;2.00;;;12.70;54.90;;;;;;5073378;28;20577;-45
2022/07/07 01:00:26;;;;;;;2.53;1.60;;;12.80;55.00;;;;;;5073730;28;20221;-45
2022/07/07 01:02:56;;;;;;;2.90;1.58;;;12.80;55.00;;;;;;5073929;28;20222;-44
2022/07/07 01:05:28;;;;;;;2.28;1.63;;;12.80;54.90;;;;;;5074018;28;20218;-45
2022/07/07 01:08:02;;;;;;;2.42;1.75;;;12.80;54.90;;;;;;5073555;28;20201;-44
2022/07/07 01:10:33;;;;;;;3.80;1.65;;;12.80;54.90;;;;;;5073135;28;20221;-44
2022/07/07 01:13:05;;;;;;;4.35;1.60;;;12.90;55.00;;;;;;5073425;28;20732;-45
2022/07/07 01:15:36;;;;;;;2.03;1.45;;;12.90;55.00;;;;;;5073311;28;20210;-44
2022/07/07 01:18:07;;;;;;;3.05;1.50;;;12.90;54.90;;;;;;5073160;28;20685;-45
2022/07/07 01:20:39;;;;;;;2.85;1.60;;;12.90;54.90;;;;;;5073358;28;20202;-43
2022/07/07 01:23:12;;;;;;;2.97;1.60;;;12.90;55.00;;;;;;5073260;28;20211;-44
2022/07/07 01:25:43;;;;;;;3.60;1.70;;;12.90;55.00;;;;;;5072904;28;20194;-45
2022/07/07 01:28:14;;;;;;;2.28;1.85;;;12.90;55.00;;;;;;5072940;28;20213;-44
2022/07/07 01:30:44;;;;;;;3.03;1.55;;;12.90;55.00;;;;;;5072676;28;20222;-44
2022/07/07 01:33:18;;;;;;;3.38;1.77;;;12.90;55.00;;;;;;5072785;28;20581;-44
2022/07/07 01:35:49;;;;;;;2.42;1.48;;;13.00;55.10;;;;;;5072720;28;20193;-43
2022/07/07 01:38:22;;;;;;;1.88;1.60;;;13.00;55.10;;;;;;5072285;28;20549;-45
2022/07/07 01:40:52;;;;;;;1.85;1.52;;;13.00;55.00;;;;;;5072054;28;20643;-46
2022/07/07 01:43:23;;;;;;;4.75;1.92;;;13.00;55.00;;;;;;5072765;28;20234;-45
2022/07/07 01:45:54;;;;;;;2.80;1.70;;;13.00;55.00;;;;;;5072682;28;20195;-45
2022/07/07 01:48:25;;;;;;;2.45;1.75;;;13.00;55.00;;;;;;5072655;28;20198;-45
2022/07/07 01:50:56;;;;;;;2.90;1.77;;;13.10;55.00;;;;;;5072498;28;20223;-46
2022/07/07 01:53:29;;;;;;;2.05;1.70;;;13.10;55.00;;;;;;5072357;28;20210;-44
2022/07/07 01:56:04;;;;;;;3.85;1.52;;;13.10;55.00;;;;;;5072374;28;20230;-45
2022/07/07 01:58:35;;;;;;;3.20;1.65;;;13.10;54.90;;;;;;5072946;28;20201;-45
2022/07/07 02:01:06;;;;;;;2.97;1.70;;;13.10;55.00;;;;;;5072874;28;20818;-44
2022/07/07 02:03:36;;;;;;;1.83;1.40;;;13.10;55.00;;;;;;5072202;28;20219;-45
2022/07/07 02:06:07;;;;;;;2.97;1.50;;;13.10;55.00;;;;;;5075029;28;20721;-44
2022/07/07 02:08:40;;;;;;;2.97;1.73;;;13.10;55.30;;;;;;5072224;28;20282;-44
2022/07/07 02:11:17;;;;;;;2.88;1.50;;;13.10;55.00;;;;;;5052396;28;20222;-44
2022/07/07 02:13:49;;;;;;;3.35;1.40;;;13.10;55.00;;;;;;5052227;28;20206;-43
2022/07/07 02:16:21;;;;;;;3.42;1.75;;;13.10;55.00;;;;;;5052078;28;20230;-43
2022/07/07 02:18:54;;;;;;;3.35;1.60;;;13.20;55.10;;;;;;5071619;28;20205;-44
2022/07/07 02:21:25;;;;;;;4.05;1.55;;;13.20;55.10;;;;;;5072183;28;20194;-45
2022/07/07 02:23:59;;;;;;;2.03;1.42;;;13.20;55.10;;;;;;5072040;28;20203;-45
2022/07/07 02:26:31;;;;;;;2.92;1.55;;;13.20;55.00;;;;;;5072043;28;20533;-45
2022/07/07 02:29:01;;;;;;;2.90;1.30;;;13.20;55.00;;;;;;5071851;28;20198;-44
2022/07/07 02:31:32;;;;;;;2.33;1.50;;;13.30;55.00;;;;;;5074847;28;20195;-46
2022/07/07 02:34:03;;;;;;;2.30;1.42;;;13.30;55.00;;;;;;5070860;28;20663;-45
2022/07/07 02:36:34;;;;;;;1.92;1.38;;;13.30;55.00;;;;;;5070848;28;20194;-44
2022/07/07 02:39:06;;;;;;;2.65;1.60;;;13.30;55.00;;;;;;5069970;28;20187;-43
2022/07/07 02:41:37;;;;;;;3.15;1.52;;;13.30;55.00;;;;;;5070748;28;20206;-45
2022/07/07 02:44:08;;;;;;;2.42;1.63;;;13.30;55.00;;;;;;5071692;28;20678;-44
2022/07/07 02:46:39;;;;;;;2.35;1.55;;;13.40;55.00;;;;;;5071051;28;20689;-44
2022/07/07 02:49:09;;;;;;;2.17;1.65;;;13.30;54.90;;;;;;5071305;28;20203;-45
2022/07/07 02:51:40;;;;;;;1.80;1.58;;;13.40;55.00;;;;;;5071649;28;20252;-46
2022/07/07 02:54:13;;;;;;;2.78;1.70;;;13.30;55.00;;;;;;5071395;28;20206;-45
2022/07/07 02:56:43;;;;;;;1.92;1.70;;;13.40;55.00;;;;;;5071482;28;20202;-45
2022/07/07 02:59:14;;;;;;;2.25;1.52;;;13.40;55.10;;;;;;5071365;28;20195;-44
2022/07/07 03:01:45;;;;;;;2.30;1.65;;;13.40;55.10;;;;;;5071128;28;20218;-45
2022/07/07 03:04:15;;;;;;;2.28;1.50;;;13.40;55.20;;;;;;5071373;28;20199;-44
2022/07/07 03:06:46;;;;;;;3.00;1.40;;;13.40;55.00;;;;;;5071719;28;20676;-44
2022/07/07 03:09:19;;;;;;;1.88;1.40;;;13.40;55.10;;;;;;5070108;28;20203;-44
2022/07/07 03:11:49;;;;;;;2.42;1.38;;;13.40;55.00;;;;;;5070837;28;20219;-45
2022/07/07 03:14:20;;;;;;;2.72;1.40;;;13.40;55.00;;;;;;5071042;28;20203;-44
2022/07/07 03:16:51;;;;;;;1.92;1.50;;;13.50;55.10;;;;;;5071125;28;20190;-44
2022/07/07 03:19:22;;;;;;;2.75;1.70;;;13.50;55.00;;;;;;5070931;28;20566;-44
2022/07/07 03:21:52;;;;;;;2.33;1.65;;;13.50;55.00;;;;;;5071076;28;20226;-45
2022/07/07 03:24:25;;;;;;;3.05;1.60;;;13.50;55.00;;;;;;5070612;28;20201;-44
2022/07/07 03:26:56;;;;;;;2.67;1.65;;;13.50;55.00;;;;;;5070897;28;20202;-44
2022/07/07 03:29:26;;;;;;;1.92;1.55;;;13.50;55.00;;;;;;5070827;28;20242;-45
2022/07/07 03:31:57;;;;;;;1.92;1.65;;;13.50;55.00;;;;;;5070921;28;20757;-45
2022/07/07 03:34:28;;;;;;;1.58;1.23;;;13.50;55.00;;;;;;5070806;28;20199;-44
2022/07/07 03:36:58;;;;;;;3.35;1.35;;;13.60;55.10;;;;;;5070892;28;20191;-45
2022/07/07 03:39:31;;;;;;;2.97;1.50;;;13.60;55.10;;;;;;5052982;28;20210;-45
2022/07/07 03:42:02;;;;;;;2.78;1.30;;;13.60;55.10;;;;;;5070650;28;20215;-46
2022/07/07 03:44:32;;;;;;;3.35;1.45;;;13.60;55.10;;;;;;5070790;28;20202;-46
2022/07/07 03:47:03;;;;;;;1.95;1.30;;;13.60;55.10;;;;;;5070463;28;20203;-45
2022/07/07 03:49:34;;;;;;;2.50;1.48;;;13.60;55.10;;;;;;5070366;28;20218;-45
2022/07/07 03:52:05;;;;;;;2.20;1.50;;;13.60;55.20;;;;;;5070710;28;20289;-45
2022/07/07 03:54:38;;;;;;;2.08;1.48;;;13.60;55.20;;;;;;5070142;28;20199;-43
2022/07/07 03:57:09;;;;;;;2.58;1.55;;;13.60;55.20;;;;;;5070379;28;20194;-45
2022/07/07 03:59:39;;;;;;;2.90;1.75;;;13.60;55.10;;;;;;5069991;28;20207;-45
2022/07/07 04:02:10;;;;;;;3.97;1.70;;;13.60;55.20;;;;;;5069986;28;20219;-45
2022/07/07 04:04:41;;;;;;;3.25;1.80;;;13.60;55.20;;;;;;5070617;28;20207;-44
2022/07/07 04:07:12;;;;;;;2.10;1.80;;;13.70;55.20;;;;;;5069993;28;20209;-44
2022/07/07 04:09:44;;;;;;;2.45;1.65;;;13.60;55.10;;;;;;5070393;28;20240;-44
2022/07/07 04:12:15;;;;;;;3.00;1.70;;;13.70;55.10;;;;;;5071246;28;20219;-44
2022/07/07 04:14:46;;;;;;;2.00;1.77;;;13.70;55.10;;;;;;5069799;28;20195;-46
2022/07/07 04:17:16;;;;;;;2.20;1.48;;;13.70;55.10;;;;;;5069232;28;20202;-46
2022/07/07 04:19:47;;;;;;;2.13;1.65;;;13.70;55.10;;;;;;5068977;28;20234;-45
2022/07/07 04:22:18;;;;;;;2.22;1.50;;;13.70;55.10;;;;;;5070017;28;20223;-45
2022/07/07 04:24:50;;;;;;;2.25;1.80;;;13.70;55.10;;;;;;5069825;28;20195;-45
2022/07/07 04:27:21;;;;;;;3.33;1.90;;;13.70;55.20;;;;;;5070064;28;20555;-45
2022/07/07 04:29:52;;;;;;;2.97;1.77;;;13.70;55.10;;;;;;5069698;28;20214;-45
2022/07/07 04:32:22;;;;;;;3.38;2.15;;;13.70;55.80;;;;;;5072155;28;20244;-46
2022/07/07 04:34:53;;;;;;;4.18;1.70;;;13.70;55.20;;;;;;5070099;28;20199;-46
2022/07/07 04:37:24;;;;;;;1.95;1.52;;;13.70;55.20;;;;;;5069829;28;20606;-45
2022/07/07 04:39:56;;;;;;;1.95;1.52;;;13.70;55.20;;;;;;5068988;28;20191;-45
2022/07/07 04:42:27;;;;;;;2.38;1.73;;;13.70;55.20;;;;;;5069476;28;20214;-46
2022/07/07 04:44:58;;;;;;;3.15;1.83;;;13.70;55.20;;;;;;5069455;28;20191;-46
2022/07/07 04:47:28;;;;;;;2.25;1.83;;;13.70;55.20;;;;;;5069709;28;20199;-45
2022/07/07 04:49:59;;;;;;;2.80;1.92;;;13.70;55.30;;;;;;5069354;28;20215;-46
2022/07/07 04:52:30;;;;;;;2.35;1.73;;;13.80;55.30;;;;;;5069580;28;20218;-44
2022/07/07 04:55:02;;;;;;;2.78;1.63;;;13.80;55.30;;;;;;5068969;28;20499;-48
2022/07/07 04:57:33;;;;;;;2.90;2.00;;;13.70;55.20;;;;;;5069478;28;20197;-44
2022/07/07 05:00:04;;;;;;;2.33;1.85;;;13.80;55.20;;;;;;5069768;28;20213;-47
2022/07/07 05:02:35;;;;;;;3.10;1.83;;;13.80;55.20;;;;;;5069518;28;20770;-45
2022/07/07 05:05:07;;;;;;;3.30;1.70;;;13.80;55.30;;;;;;5070190;28;20568;-44
2022/07/07 05:07:38;;;;;;;2.50;1.80;;;13.70;55.20;;;;;;5069542;28;20199;-47
2022/07/07 05:10:11;;;;;;;1.80;1.60;;;13.80;55.30;;;;;;5068883;28;20697;-46
2022/07/07 05:12:41;;;;;;;2.72;2.15;;;13.80;55.30;;;;;;5069434;28;20215;-46
2022/07/07 05:15:13;;;;;;;2.92;1.55;;;13.80;55.30;;;;;;5069599;28;20277;-48
2022/07/07 05:17:43;;;;;;;2.30;1.40;;;13.80;55.30;;;;;;5069675;28;20256;-45
2022/07/07 05:20:14;;;;;;;2.10;1.70;;;13.80;55.30;;;;;;5069646;28;20213;-45
2022/07/07 05:22:45;;;;;;;2.53;1.80;;;13.80;55.30;;;;;;5069512;28;20211;-44
2022/07/07 05:25:17;;;;;;;2.83;1.77;;;13.80;55.30;;;;;;5068752;28;20191;-44
2022/07/07 05:27:48;;;;;;;2.17;1.77;;;13.80;55.30;;;;;;5069022;28;20202;-44
2022/07/07 05:30:19;;;;;;;2.08;1.60;;;13.80;55.90;;;;;;5068995;28;20219;-44
2022/07/07 05:32:50;;;;;;;2.72;2.13;;;13.80;55.40;;;;;;5072365;28;20218;-46
2022/07/07 05:35:20;;;;;;;3.20;2.10;;;13.80;55.40;;;;;;5072832;28;20239;-45
2022/07/07 05:37:51;;;;;;;1.80;1.38;;;13.80;55.40;;;;;;5072415;28;20256;-47
2022/07/07 05:40:24;;;;;;;2.63;1.60;;;13.80;55.40;;;;;;5072252;28;20191;-46
2022/07/07 05:42:54;;;;;;;2.05;1.58;;;13.80;55.40;;;;;;5072457;28;20283;-45
2022/07/07 05:45:25;;;;;;;2.92;1.90;;;13.80;55.30;;;;;;5072803;28;20206;-45
2022/07/07 05:47:56;;;;;;;2.17;1.40;;;13.80;55.30;;;;;;5072452;28;20252;-45
2022/07/07 05:50:27;;;;;;;2.53;1.50;;;13.80;55.30;;;;;;5071409;28;20705;-44
2022/07/07 05:52:58;;;;;;;2.22;1.77;;;13.80;55.30;;;;;;5072125;28;20218;-44
2022/07/07 05:55:30;;;;;;;1.52;1.42;;;13.80;55.30;;;;;;5072032;28;20198;-44
2022/07/07 05:58:01;;;;;;;2.03;1.60;;;13.80;55.30;;;;;;5072351;28;20206;-45
2022/07/07 06:00:32;;;;;;;1.88;1.55;;;13.80;55.30;;;;;;5072190;28;20211;-46
2022/07/07 06:03:03;;;;;;;3.92;1.90;;;13.80;55.40;;;;;;5071868;28;20233;-44
2022/07/07 06:05:34;;;;;;;2.80;1.60;;;13.80;55.40;;;;;;5072505;28;20213;-43
2022/07/07 06:08:04;;;;;;;2.75;1.88;;;13.80;55.40;;;;;;5072286;28;20195;-43
2022/07/07 06:10:37;;;;;;;3.17;1.70;;;13.80;55.40;;;;;;5070757;28;20394;-46
2022/07/07 06:13:08;;;;;;;1.75;1.60;;;13.80;55.40;;;;;;5072039;28;20881;-46
2022/07/07 06:15:39;;;;;;;2.50;1.70;;;13.80;55.50;;;;;;5072463;28;20707;-45
2022/07/07 06:18:09;;;;;;;2.72;1.60;;;13.80;55.50;;;;;;5088358;28;20202;-46
2022/07/07 06:20:40;;;;;;;1.88;1.50;;;13.80;55.50;;;;;;5092222;28;20207;-44
2022/07/07 06:23:11;;;;;;;2.42;1.77;;;13.80;55.50;;;;;;5092243;28;20766;-43
2022/07/07 06:25:45;;;;;;;1.65;1.55;;;13.80;55.60;;;;;;5087656;28;20284;-45
2022/07/07 06:28:16;;;;;;;2.38;1.90;;;13.80;55.50;;;;;;5071873;28;20198;-46
2022/07/07 06:30:46;;;;;;;2.05;1.67;;;13.80;55.50;;;;;;5071381;28;20564;-45
2022/07/07 06:33:17;;;;;;;3.17;1.98;;;13.80;55.50;;;;;;5071684;28;20273;-44
2022/07/07 06:35:48;;;;;;;2.60;2.03;;;13.80;55.50;;;;;;5074106;28;20194;-45
2022/07/07 06:38:19;;;;;;;2.65;1.77;;;13.80;55.50;;;;;;5071481;28;20602;-45
2022/07/07 06:40:51;;;;;;;3.60;2.35;;;13.80;55.50;;;;;;5071490;28;20222;-46
2022/07/07 06:43:22;;;;;;;2.80;2.00;;;13.80;55.50;;;;;;5070939;28;20218;-46
2022/07/07 06:45:53;;;;;;;2.80;2.15;;;13.80;55.40;;;;;;5071565;28;20563;-46
2022/07/07 06:48:24;;;;;;;3.38;2.67;;;13.80;55.50;;;;;;5071338;28;20199;-43
2022/07/07 06:50:54;;;;;;;3.33;2.20;;;13.80;55.50;;;;;;5071061;28;20231;-44
2022/07/07 06:53:25;;;;;;;3.67;2.70;;;13.80;55.40;;;;;;5071126;28;20744;-44
2022/07/07 06:55:57;;;;;;;4.30;2.67;;;13.80;55.40;;;;;;5070678;28;20190;-45
2022/07/07 06:58:28;;;;;;;5.57;3.55;;;13.80;55.40;;;;;;5071067;28;20647;-45
2022/07/07 07:00:59;;;;;;;5.10;3.60;;;13.80;55.50;;;;;;5071458;28;20203;-45
2022/07/07 07:03:30;;;;;;;4.47;3.42;;;13.80;55.50;;;;;;5071050;28;20690;-45
2022/07/07 07:06:01;;;;;;;5.18;3.88;;;13.80;55.40;;;;;;5070766;28;20211;-46
2022/07/07 07:08:31;;;;;;;5.93;4.10;;;13.70;55.40;;;;;;5071685;28;20190;-44
2022/07/07 07:11:04;;;;;;;5.28;3.83;;;13.80;55.50;;;;;;5070853;28;20229;-45
2022/07/07 07:13:35;;;;;;;4.47;3.53;;;13.80;55.50;;;;;;5070993;28;20694;-45
2022/07/07 07:16:06;;;;;;;4.43;3.63;;;13.80;55.40;;;;;;5070892;28;20218;-47
2022/07/07 07:18:37;;;;;;;5.63;3.95;;;13.80;55.40;;;;;;5070946;28;20202;-46
2022/07/07 07:21:08;;;;;;;5.95;3.92;;;13.80;55.40;;;;;;5070854;28;20621;-46
2022/07/07 07:23:38;;;;;;;5.88;3.90;;;13.70;55.40;;;;;;5070722;28;20230;-46
2022/07/07 07:26:12;;;;;;;5.72;3.45;;;13.80;55.40;;;;;;5069955;28;20273;-44
2022/07/07 07:28:42;;;;;;;12.80;9.40;;;13.80;55.50;;;;;;5070531;28;20206;-45
2022/07/07 07:31:13;;;;;;;12.35;9.05;;;13.80;56.40;;;;;;5070545;28;20632;-44
2022/07/07 07:33:44;;;;;;;10.45;8.40;;;13.80;57.10;;;;;;5070527;28;20218;-44
2022/07/07 07:36:15;;;;;;;8.10;6.30;;;13.80;57.10;;;;;;5070609;28;20222;-44
2022/07/07 07:38:48;;;;;;;8.70;6.28;;;13.80;57.00;;;;;;5070475;28;20204;-44
2022/07/07 07:41:21;;;;;;;8.63;6.15;;;13.80;56.90;;;;;;5070311;28;20191;-45
2022/07/07 07:43:51;;;;;;;9.75;6.32;;;13.80;56.70;;;;;;5070629;28;20195;-46
2022/07/07 07:46:22;;;;;;;7.57;5.88;;;13.80;56.60;;;;;;5070667;28;20256;-44
2022/07/07 07:48:53;;;;;;;7.13;6.00;;;13.80;56.60;;;;;;5069936;28;20210;-45
2022/07/07 07:51:24;;;;;;;7.97;5.85;;;13.80;56.60;;;;;;5070053;28;20690;-45
2022/07/07 07:53:54;;;;;;;6.80;6.10;;;13.80;56.60;;;;;;5070012;28;20686;-44
2022/07/07 07:56:27;;;;;;;8.48;6.22;;;13.80;56.50;;;;;;5069676;28;20187;-44
2022/07/07 07:58:58;;;;;;;9.75;6.38;;;13.80;56.50;;;;;;5070374;28;20201;-45
2022/07/07 08:01:28;;;;;;;9.52;6.13;;;13.80;56.40;;;;;;5070335;28;20202;-45
2022/07/07 08:03:59;;;;;;;7.65;6.07;;;13.80;56.40;;;;;;5069921;28;20554;-44
2022/07/07 08:06:30;;;;;;;8.02;6.13;;;13.80;56.40;;;;;;5069360;28;20207;-44
2022/07/07 08:09:00;;;;;;;6.65;5.95;;;13.80;56.40;;;;;;5070291;28;20765;-44
2022/07/07 08:11:33;;;;;;;9.68;6.10;;;13.80;56.40;;;;;;5071733;28;20223;-47
2022/07/07 08:14:04;;;;;;;7.38;6.00;;;13.80;56.40;;;;;;5069356;28;20198;-45
2022/07/07 08:16:35;;;;;;;8.43;7.35;;;13.80;56.30;;;;;;5068831;28;20269;-44
2022/07/07 08:19:05;;;;;;;9.55;7.05;;;13.80;56.60;;;;;;5069963;28;20194;-44
2022/07/07 08:21:36;;;;;;;9.95;7.22;;;13.80;56.80;;;;;;5069905;28;20194;-45
2022/07/07 08:24:07;;;;;;;7.70;6.78;;;13.80;56.70;;;;;;5070158;28;20651;-44
2022/07/07 08:26:40;;;;;;;7.13;6.28;;;13.80;56.70;;;;;;5069592;28;20202;-44
2022/07/07 08:29:10;;;;;;;9.00;6.75;;;13.80;56.70;;;;;;5069841;28;20268;-44
2022/07/07 08:31:41;;;;;;;8.23;6.00;;;13.80;56.60;;;;;;5069719;28;20226;-44
2022/07/07 08:34:12;;;;;;;7.47;5.90;;;13.80;56.60;;;;;;5069924;28;20202;-43
2022/07/07 08:36:43;;;;;;;8.80;6.32;;;13.80;56.60;;;;;;5069874;28;20207;-43
2022/07/07 08:39:13;;;;;;;7.13;6.13;;;13.80;56.60;;;;;;5071115;28;20238;-45
2022/07/07 08:41:46;;;;;;;9.75;6.82;;;13.80;56.60;;;;;;5070536;28;20218;-43
2022/07/07 08:44:18;;;;;;;7.90;6.20;;;13.80;56.60;;;;;;5069202;28;20618;-43
2022/07/07 08:46:49;;;;;;;7.75;5.97;;;13.80;56.60;;;;;;5069175;28;20670;-44
2022/07/07 08:49:19;;;;;;;8.18;6.28;;;13.80;56.60;;;;;;5069108;28;20206;-44
2022/07/07 08:51:50;;;;;;;7.25;5.93;;;13.80;56.60;;;;;;5069009;28;20276;-44
2022/07/07 08:54:21;;;;;;;8.13;5.80;;;13.80;56.60;;;;;;5071570;28;20204;-43
2022/07/07 08:56:54;;;;;;;6.28;5.18;;;13.80;56.60;;;;;;5068939;28;20609;-44
2022/07/07 08:59:24;;;;;;;6.72;5.63;;;13.80;56.60;;;;;;5067541;28;20217;-46
2022/07/07 09:01:59;;;;;;;7.10;5.82;;;13.80;56.60;;;;;;5068087;28;20223;-43
2022/07/07 09:04:31;;;;;;;7.05;5.68;;;13.80;56.60;;;;;;5069109;28;20194;-44
2022/07/07 09:07:03;;;;;;;8.80;6.45;;;13.80;56.90;;;;;;5071237;28;20210;-45
2022/07/07 09:09:43;;;;;;;8.02;6.43;;;13.80;56.60;;;;;;5073192;28;20202;-45
2022/07/07 09:12:17;;;;;;;7.32;6.18;;;13.80;56.60;;;;;;5072272;28;20234;-45
2022/07/07 09:14:49;;;;;;;7.03;5.85;;;13.80;56.60;;;;;;5073093;28;20713;-45
2022/07/07 09:17:28;;;;;;;7.93;6.25;;;13.70;56.50;;;;;;5073018;28;20198;-44
2022/07/07 09:20:05;;;;;;;5.88;5.28;;;13.70;56.60;;;;;;5072836;28;20610;-43
2022/07/07 09:22:46;;;;;;;6.97;5.90;;;13.80;56.60;;;;;;5073047;28;20215;-44
2022/07/07 09:25:18;;;;;;;7.53;6.05;;;13.80;56.60;;;;;;5073218;28;20203;-44
2022/07/07 09:28:00;;;;;;;9.15;6.75;;;13.70;56.50;;;;;;5073156;28;20197;-45
2022/07/07 09:30:36;;;;;;;8.45;6.63;;;13.80;58.10;;;;;;5073049;28;20198;-45
2022/07/07 09:33:08;;;;;;;11.00;6.93;;;13.90;58.20;;;;;;5072819;28;20234;-43
2022/07/07 09:38:28;;;;;;;9.30;6.88;;;14.00;58.10;;;;;;5073267;28;20313;-43
2022/07/07 09:41:03;;;;;;;8.65;6.57;;;14.00;58.10;;;;;;5073110;28;20218;-45
2022/07/07 09:43:37;;;;;;;8.38;6.68;;;13.90;57.90;;;;;;5072610;28;20249;-44
2022/07/07 09:46:16;;;;;;;7.55;6.03;;;13.90;57.90;;;;;;5072770;28;20677;-44
2022/07/07 09:48:48;;;;;;;10.20;6.55;;;13.90;57.80;;;;;;5072873;28;20696;-48
2022/07/07 09:51:25;;;;;;;9.77;6.13;;;13.90;57.70;;;;;;5072804;28;20843;-44
2022/07/07 09:54:14;;;;;;;7.57;6.30;;;13.90;57.60;;;;;;5060443;28;20199;-44
2022/07/07 09:56:46;;;;;;;8.52;6.47;;;13.90;57.70;;;;;;5074009;28;20197;-44
2022/07/07 09:59:19;;;;;;;8.85;6.15;;;13.90;57.60;;;;;;5070735;28;20199;-44
2022/07/07 10:01:52;;;;;;;8.45;6.75;;;13.90;57.60;;;;;;5072943;28;20215;-45
2022/07/07 10:04:23;;;;;;;7.97;6.20;;;13.90;57.60;;;;;;5072663;28;20241;-46
2022/07/07 10:06:59;;;;;;;8.93;6.18;;;13.90;57.50;;;;;;5075061;28;20639;-44
2022/07/07 10:09:30;;;;;;;7.35;6.30;;;13.90;57.50;;;;;;5073681;28;20252;-42
2022/07/07 10:12:01;;;;;;;8.32;5.97;;;13.90;57.50;;;;;;5091763;28;20241;-43
2022/07/07 10:14:36;;;;;;;6.82;5.90;;;13.90;57.40;;;;;;5075822;28;20535;-45
2022/07/07 10:17:08;;;;;;;7.70;5.95;;;13.90;57.40;;;;;;5072064;28;20211;-45
2022/07/07 10:19:38;;;;;;;8.30;5.93;;;13.90;57.40;;;;;;5073176;28;20264;-45
2022/07/07 10:22:09;;;;;;;6.85;5.97;;;13.90;57.30;;;;;;5073081;28;20686;-45
2022/07/07 10:24:40;;;;;;;7.57;6.20;;;13.90;57.30;;;;;;5073748;28;20237;-45
2022/07/07 10:27:19;;;;;;;7.85;6.07;;;13.90;57.30;;;;;;5072756;28;20750;-46
2022/07/07 10:29:53;;;;;;;7.35;6.18;;;13.90;57.20;;;;;;5072724;28;20197;-45
2022/07/07 10:32:33;;;;;;;6.63;6.03;;;13.90;57.20;;;;;;5072856;28;20621;-44
2022/07/07 10:35:09;;;;;;;7.40;6.18;;;13.90;57.20;;;;;;5072121;28;20244;-43
2022/07/07 10:37:46;;;;;;;6.40;5.78;;;13.90;57.10;;;;;;5072489;28;20229;-44
2022/07/07 10:40:22;;;;;;;7.28;5.60;;;13.90;57.10;;;;;;5075628;28;20198;-45
2022/07/07 10:43:14;;;;;;;8.32;6.13;;;13.80;57.10;;;;;;5072215;28;20222;-45
2022/07/07 10:45:51;;;;;;;7.53;6.22;;;13.80;57.00;;;;;;5072826;28;20198;-43
2022/07/07 10:48:45;;;;;;;8.23;6.22;;;13.80;57.10;;;;;;5073507;28;20272;-44
2022/07/07 10:51:21;;;;;;;7.45;6.15;;;13.80;57.10;;;;;;5060063;28;20198;-44
2022/07/07 10:54:03;;;;;;;6.65;5.97;;;13.80;57.00;;;;;;5072479;28;20314;-44
2022/07/07 10:57:18;;;;;;;6.70;5.97;;;13.80;57.10;;;;;;5072458;28;20305;-44
2022/07/07 11:00:13;;;;;;;9.38;6.50;;;13.80;57.10;;;;;;5072136;28;20205;-46
2022/07/07 11:02:47;;;;;;;6.32;5.05;;;13.80;57.00;;;;;;5072488;28;20226;-45
2022/07/07 11:05:32;;;;;;;6.82;5.40;;;13.80;57.00;;;;;;5072145;28;20238;-45
2022/07/07 11:08:17;;;;;;;7.25;5.78;;;13.80;57.00;;;;;;5072643;28;20198;-44
2022/07/07 11:10:58;;;;;;;6.70;6.00;;;13.80;57.00;;;;;;5072657;28;20190;-46
2022/07/07 11:13:39;;;;;;;6.85;6.15;;;13.80;56.90;;;;;;5072816;28;20736;-44
2022/07/07 11:16:23;;;;;;;7.20;5.95;;;13.80;56.90;;;;;;5071579;28;20252;-43
2022/07/07 11:19:00;;;;;;;6.45;5.65;;;13.80;56.90;;;;;;5071228;28;20191;-44
2022/07/07 11:21:43;;;;;;;6.95;6.25;;;13.80;56.90;;;;;;5071079;28;20194;-43
2022/07/07 11:24:24;;;;;;;6.38;5.53;;;13.80;56.90;;;;;;5070491;28;20191;-44
2022/07/07 11:27:00;;;;;;;8.90;6.40;;;13.80;56.90;;;;;;5070905;28;20198;-43
2022/07/07 11:29:31;;;;;;;6.15;5.50;;;13.80;56.90;;;;;;5070547;28;20274;-43
2022/07/07 11:32:09;;;;;;;6.40;5.75;;;13.80;57.00;;;;;;5070620;28;20218;-46
2022/07/07 11:34:47;;;;;;;7.00;6.07;;;13.80;56.90;;;;;;5071228;28;20194;-44
2022/07/07 11:37:22;;;;;;;6.25;5.50;;;13.80;57.00;;;;;;5070881;28;20237;-43
2022/07/07 11:39:53;;;;;;;7.65;5.93;;;13.80;56.90;;;;;;5070454;28;20198;-45
2022/07/07 11:42:24;;;;;;;7.38;5.97;;;13.80;56.90;;;;;;5070635;28;20229;-45
2022/07/07 11:44:54;;;;;;;6.97;5.88;;;13.80;56.90;;;;;;5070718;28;20199;-44
2022/07/07 11:47:26;;;;;;;7.00;5.80;;;13.80;57.00;;;;;;5070535;28;20202;-44
2022/07/07 11:49:59;;;;;;;6.93;6.18;;;13.80;56.90;;;;;;5070548;28;20571;-44
2022/07/07 11:52:29;;;;;;;8.15;6.20;;;13.80;56.90;;;;;;5070488;28;20637;-44
2022/07/07 11:55:04;;;;;;;7.50;6.30;;;13.80;56.90;;;;;;5070424;28;20195;-44
2022/07/07 11:57:37;;;;;;;8.00;6.43;;;13.80;56.90;;;;;;5070585;28;20194;-44
2022/07/07 12:00:17;;;;;;;8.50;6.40;;;13.80;56.90;;;;;;5070462;28;20240;-47
2022/07/07 12:02:49;;;;;;;7.47;6.35;;;13.80;56.90;;;;;;5072937;28;20239;-43
2022/07/07 12:05:23;;;;;;;7.22;6.38;;;13.80;56.90;;;;;;5069798;28;20214;-45
2022/07/07 12:08:03;;;;;;;7.53;6.03;;;13.80;56.80;;;;;;5069904;28;20732;-43
2022/07/07 12:10:40;;;;;;;7.05;6.10;;;13.80;56.90;;;;;;5070046;28;20191;-43
2022/07/07 12:13:11;;;;;;;6.93;6.22;;;13.80;56.90;;;;;;5070221;28;20230;-45
2022/07/07 12:15:45;;;;;;;8.45;6.40;;;13.80;56.90;;;;;;5069864;28;20182;-45
2022/07/07 12:18:20;;;;;;;6.50;5.88;;;13.80;56.90;;;;;;5070204;28;20201;-43
2022/07/07 12:21:01;;;;;;;7.05;6.30;;;13.80;56.90;;;;;;5070199;28;20251;-43
2022/07/07 12:23:36;;;;;;;7.10;6.22;;;13.80;56.90;;;;;;5070257;28;20593;-44
2022/07/07 12:26:17;;;;;;;7.22;5.97;;;13.80;56.90;;;;;;5069707;28;20195;-43
2022/07/07 12:28:47;;;;;;;8.27;6.70;;;13.70;56.90;;;;;;5069811;28;20197;-45
2022/07/07 12:31:20;;;;;;;8.15;6.10;;;13.80;56.90;;;;;;5069836;28;20195;-43
2022/07/07 12:33:51;;;;;;;8.00;6.25;;;13.80;56.90;;;;;;5070027;28;20222;-44
2022/07/07 12:36:26;;;;;;;8.60;6.63;;;13.80;57.00;;;;;;5070102;28;20234;-43
2022/07/07 12:38:58;;;;;;;7.70;5.93;;;13.80;56.90;;;;;;5069871;28;20708;-43
2022/07/07 12:41:30;;;;;;;7.13;6.10;;;13.80;56.90;;;;;;5070936;28;20199;-43
2022/07/07 12:44:14;;;;;;;8.88;6.00;;;13.70;56.90;;;;;;5069686;28;20199;-43
2022/07/07 12:46:47;;;;;;;7.40;5.90;;;13.80;56.90;;;;;;5070077;28;20199;-44
2022/07/07 12:49:18;;;;;;;7.82;5.88;;;13.80;56.90;;;;;;5069719;28;20233;-44
2022/07/07 12:51:51;;;;;;;8.25;6.10;;;13.80;56.90;;;;;;5069770;28;20229;-42
2022/07/07 12:54:26;;;;;;;7.13;6.05;;;13.80;56.90;;;;;;5070917;28;20219;-44
2022/07/07 12:57:03;;;;;;;7.53;5.80;;;13.80;56.90;;;;;;5049927;28;20194;-44
2022/07/07 12:59:39;;;;;;;8.80;5.97;;;13.80;56.90;;;;;;5049979;28;20202;-44
2022/07/07 13:02:11;;;;;;;8.02;6.22;;;13.80;56.90;;;;;;5049348;28;20207;-43
2022/07/07 13:04:42;;;;;;;8.18;6.25;;;13.80;56.90;;;;;;5049117;28;20765;-44
2022/07/07 13:07:15;;;;;;;8.48;6.22;;;13.80;56.90;;;;;;5048870;28;20257;-44
2022/07/07 13:09:46;;;;;;;6.78;6.07;;;13.80;56.90;;;;;;5052016;28;20199;-43
2022/07/07 13:12:18;;;;;;;8.68;6.15;;;13.80;57.00;;;;;;5069270;28;20218;-44
2022/07/07 13:14:49;;;;;;;11.32;6.68;;;13.80;56.90;;;;;;5069773;28;20197;-44
2022/07/07 13:17:20;;;;;;;9.82;6.63;;;13.70;56.90;;;;;;5069572;28;20194;-44